createdAt,value
2023-04-23T00:02:06.408Z,18.60
2023-04-23T00:04:35.195Z,19.90
2023-04-23T00:07:03.742Z,21.50
2023-04-23T00:09:32.634Z,21.50
2023-04-23T00:12:01.992Z,20.60
2023-04-23T00:14:30.582Z,20.50
2023-04-23T00:16:58.441Z,21.40
2023-04-23T00:19:26.532Z,20.70
2023-04-23T00:21:54.316Z,22.40
2023-04-23T00:24:22.269Z,21.00
2023-04-23T00:26:53.044Z,21.50
2023-04-23T00:29:21.072Z,21.20
2023-04-23T00:31:49.075Z,23.30
2023-04-23T00:34:17.008Z,23.10
2023-04-23T00:36:45.279Z,24.70
2023-04-23T00:39:13.221Z,21.90
2023-04-23T00:41:41.788Z,20.80
2023-04-23T00:44:10.272Z,20.10
2023-04-23T00:46:38.669Z,20.00
2023-04-23T00:49:07.067Z,20.80
2023-04-23T00:51:36.328Z,18.90
2023-04-23T00:54:04.436Z,18.90
2023-04-23T00:56:32.389Z,19.10
2023-04-23T00:59:02.694Z,17.50
2023-04-23T01:01:31.018Z,20.00
2023-04-23T01:03:59.116Z,18.40
2023-04-23T01:06:28.749Z,18.80
2023-04-23T01:08:56.658Z,19.20
2023-04-23T01:11:24.738Z,17.60
2023-04-23T01:13:52.594Z,19.10
2023-04-23T01:16:20.503Z,18.30
2023-04-23T01:18:48.629Z,20.60
2023-04-23T01:21:16.816Z,18.50
2023-04-23T01:23:44.777Z,22.00
2023-04-23T01:26:12.742Z,19.10
2023-04-23T01:28:41.597Z,19.00
2023-04-23T01:31:09.705Z,22.20
2023-04-23T01:33:37.817Z,19.60
2023-04-23T01:36:05.874Z,21.00
2023-04-23T01:38:33.749Z,22.00
2023-04-23T01:41:01.771Z,20.30
2023-04-23T01:43:29.959Z,21.30
2023-04-23T01:45:58.346Z,21.20
2023-04-23T01:48:26.323Z,22.30
2023-04-23T01:50:54.444Z,20.00
2023-04-23T01:53:22.597Z,21.70
2023-04-23T01:55:50.621Z,21.40
2023-04-23T01:58:19.580Z,20.80
2023-04-23T02:00:47.461Z,20.90
2023-04-23T02:03:16.483Z,21.70
2023-04-23T02:05:45.290Z,20.30
2023-04-23T02:08:13.335Z,19.00
2023-04-23T02:10:41.260Z,19.60
2023-04-23T02:13:09.979Z,19.50
2023-04-23T02:15:38.315Z,19.20
2023-04-23T02:18:06.704Z,19.90
2023-04-23T02:20:38.781Z,19.40
2023-04-23T02:23:08.117Z,19.00
2023-04-23T02:25:38.453Z,19.40
2023-04-23T02:28:07.756Z,18.20
2023-04-23T02:30:36.383Z,16.10
2023-04-23T02:33:05.153Z,18.40
2023-04-23T02:35:33.519Z,17.80
2023-04-23T02:38:01.452Z,21.50
2023-04-23T02:40:29.641Z,18.60
2023-04-23T02:42:57.492Z,18.30
2023-04-23T02:45:25.815Z,19.50
2023-04-23T02:47:53.901Z,17.50
2023-04-23T02:50:22.163Z,16.90
2023-04-23T02:52:49.986Z,15.20
2023-04-23T02:55:17.996Z,16.30
2023-04-23T02:57:46.381Z,16.50
2023-04-23T03:00:15.551Z,16.60
2023-04-23T03:02:44.754Z,17.90
2023-04-23T03:05:13.072Z,18.30
2023-04-23T03:07:41.370Z,18.80
2023-04-23T03:10:09.770Z,18.70
2023-04-23T03:12:38.630Z,19.20
2023-04-23T03:15:07.085Z,17.40
2023-04-23T03:17:36.700Z,19.10
2023-04-23T03:20:07.099Z,17.90
2023-04-23T03:22:36.252Z,17.20
2023-04-23T03:25:04.950Z,17.50
2023-04-23T03:27:32.838Z,17.30
2023-04-23T03:30:01.030Z,17.10
2023-04-23T03:32:29.083Z,18.40
2023-04-23T03:34:56.965Z,17.70
2023-04-23T03:37:25.198Z,17.60
2023-04-23T03:39:53.286Z,16.60
2023-04-23T03:45:26.256Z,15.80
2023-04-23T03:47:54.627Z,17.70
2023-04-23T03:50:22.737Z,16.30
2023-04-23T03:53:05.190Z,17.00
2023-04-23T03:55:55.853Z,19.40
2023-04-23T03:58:23.854Z,18.80
2023-04-23T04:00:53.351Z,17.40
2023-04-23T04:03:21.701Z,19.50
2023-04-23T04:05:50.509Z,18.00
2023-04-23T04:08:19.573Z,18.30
2023-04-23T04:10:47.487Z,19.20
2023-04-23T04:13:16.173Z,23.80
2023-04-23T04:15:44.250Z,19.60
2023-04-23T04:18:12.274Z,19.90
2023-04-23T04:20:40.258Z,18.80
2023-04-23T04:23:08.140Z,19.30
2023-04-23T04:25:39.912Z,18.50
2023-04-23T04:28:12.046Z,19.20
2023-04-23T04:30:40.563Z,21.30
2023-04-23T04:33:09.068Z,22.20
2023-04-23T04:35:37.161Z,24.00
2023-04-23T04:38:05.232Z,23.00
2023-04-23T04:40:34.679Z,26.20
2023-04-23T04:43:05.431Z,23.80
2023-04-23T04:45:33.747Z,20.80
2023-04-23T04:48:01.956Z,23.60
2023-04-23T04:50:30.164Z,18.40
2023-04-23T04:52:58.084Z,19.10
2023-04-23T04:55:27.217Z,18.30
2023-04-23T04:57:55.948Z,18.30
2023-04-23T05:00:27.846Z,16.60
2023-04-23T05:02:57.340Z,15.20
2023-04-23T05:05:26.171Z,16.70
2023-04-23T05:07:59.440Z,15.90
2023-04-23T05:10:27.584Z,16.60
2023-04-23T05:12:58.559Z,15.90
2023-04-23T05:15:26.658Z,16.80
2023-04-23T05:17:54.657Z,17.00
2023-04-23T05:20:22.919Z,16.40
2023-04-23T05:22:50.823Z,16.00
2023-04-23T05:25:18.879Z,15.70
2023-04-23T05:27:46.831Z,16.30
2023-04-23T05:30:15.239Z,14.90
2023-04-23T05:32:43.514Z,14.90
2023-04-23T05:35:11.457Z,15.30
2023-04-23T05:37:39.440Z,15.30
2023-04-23T05:40:08.022Z,17.60
2023-04-23T05:42:36.526Z,14.70
2023-04-23T05:45:07.246Z,15.30
2023-04-23T05:47:36.806Z,14.80
2023-04-23T05:50:06.373Z,13.90
2023-04-23T05:52:37.298Z,15.20
2023-04-23T05:55:07.957Z,14.70
2023-04-23T05:57:37.671Z,16.40
2023-04-23T06:00:09.856Z,14.90
2023-04-23T06:02:41.343Z,15.10
2023-04-23T06:05:10.231Z,15.50
2023-04-23T06:07:38.522Z,14.30
2023-04-23T06:10:07.445Z,15.50
2023-04-23T06:12:39.263Z,13.40
2023-04-23T06:15:08.559Z,12.70
2023-04-23T06:17:38.218Z,11.70
2023-04-23T06:20:07.440Z,13.70
2023-04-23T06:22:35.554Z,12.80
2023-04-23T06:25:04.052Z,13.60
2023-04-23T06:27:33.743Z,13.10
2023-04-23T06:30:06.166Z,13.90
2023-04-23T06:32:34.216Z,13.30
2023-04-23T06:35:02.602Z,12.30
2023-04-23T06:37:31.949Z,12.00
2023-04-23T06:40:00.237Z,11.90
2023-04-23T06:42:28.221Z,12.90
2023-04-23T06:45:33.344Z,15.00
2023-04-23T06:48:01.707Z,16.40
2023-04-23T06:50:30.561Z,13.40
2023-04-23T06:52:58.428Z,12.90
2023-04-23T06:55:26.434Z,12.40
2023-04-23T06:57:54.714Z,11.30
2023-04-23T07:00:22.901Z,11.90
2023-04-23T07:02:51.229Z,10.30
2023-04-23T07:05:19.464Z,9.50
2023-04-23T07:07:47.396Z,9.70
2023-04-23T07:10:17.475Z,8.90
2023-04-23T07:12:45.939Z,9.10
2023-04-23T07:15:13.790Z,8.70
2023-04-23T07:17:41.891Z,9.50
2023-04-23T07:20:09.977Z,7.90
2023-04-23T07:22:38.289Z,7.90
2023-04-23T07:25:08.747Z,6.60
2023-04-23T07:27:37.206Z,6.30
2023-04-23T07:30:06.882Z,5.70
2023-04-23T07:32:35.071Z,6.40
2023-04-23T07:35:03.135Z,5.90
2023-04-23T07:37:31.288Z,5.80
2023-04-23T07:40:00.259Z,7.00
2023-04-23T07:42:28.671Z,7.00
2023-04-23T07:44:56.567Z,5.50
2023-04-23T07:47:24.465Z,5.40
2023-04-23T07:49:52.714Z,6.20
2023-04-23T07:52:22.124Z,6.10
2023-04-23T07:54:51.304Z,8.10
2023-04-23T07:57:19.265Z,5.40
2023-04-23T07:59:47.072Z,5.50
2023-04-23T08:02:15.172Z,6.60
2023-04-23T08:04:43.255Z,5.90
2023-04-23T08:07:11.767Z,6.00
2023-04-23T08:09:40.550Z,5.90
2023-04-23T08:12:08.667Z,5.80
2023-04-23T08:14:36.593Z,4.90
2023-04-23T08:17:05.897Z,6.50
2023-04-23T08:19:34.093Z,4.90
2023-04-23T08:22:01.982Z,6.10
2023-04-23T08:24:30.322Z,5.20
2023-04-23T08:26:58.199Z,5.10
2023-04-23T08:29:26.048Z,5.70
2023-04-23T08:31:53.938Z,5.50
2023-04-23T08:34:22.083Z,5.20
2023-04-23T08:36:49.969Z,5.80
2023-04-23T08:39:17.920Z,5.60
2023-04-23T08:41:48.265Z,5.20
2023-04-23T08:44:21.804Z,5.50
2023-04-23T08:46:49.786Z,4.60
2023-04-23T08:49:18.304Z,4.20
2023-04-23T08:51:53.405Z,3.80
2023-04-23T08:54:28.398Z,4.50
2023-04-23T08:56:58.417Z,4.50
2023-04-23T08:59:26.670Z,4.00
2023-04-23T09:01:54.701Z,4.30
2023-04-23T09:04:23.919Z,3.50
2023-04-23T09:06:52.178Z,3.70
2023-04-23T09:09:20.214Z,4.30
2023-04-23T09:11:48.345Z,3.50
2023-04-23T09:14:16.248Z,4.00
2023-04-23T09:16:44.611Z,4.20
2023-04-23T09:19:12.655Z,3.30
2023-04-23T09:21:41.200Z,3.90
2023-04-23T09:24:12.245Z,4.10
2023-04-23T09:26:48.295Z,3.60
2023-04-23T09:29:18.490Z,6.50
2023-04-23T09:31:47.873Z,4.00
2023-04-23T09:34:18.667Z,4.60
2023-04-23T09:36:47.822Z,3.50
2023-04-23T09:39:16.966Z,3.50
2023-04-23T09:41:47.828Z,4.70
2023-04-23T09:44:19.692Z,3.20
2023-04-23T09:46:47.538Z,4.30
2023-04-23T09:49:15.735Z,3.60
2023-04-23T09:51:46.197Z,3.80
2023-04-23T09:54:26.073Z,4.40
2023-04-23T09:56:57.318Z,3.70
2023-04-23T09:59:46.993Z,3.50
2023-04-23T10:02:15.411Z,4.80
2023-04-23T10:04:43.830Z,4.20
2023-04-23T10:07:19.755Z,3.40
2023-04-23T10:09:48.628Z,4.10
2023-04-23T10:14:49.540Z,4.20
2023-04-23T10:17:18.001Z,4.70
2023-04-23T10:19:46.253Z,3.90
2023-04-23T10:24:46.746Z,4.20
2023-04-23T10:27:28.511Z,4.40
2023-04-23T10:30:10.642Z,3.90
2023-04-23T10:32:39.321Z,4.50
2023-04-23T10:35:08.502Z,4.40
2023-04-23T10:37:37.371Z,4.10
2023-04-23T10:40:27.037Z,4.40
2023-04-23T10:42:55.671Z,4.50
2023-04-23T10:45:25.236Z,4.00
2023-04-23T10:47:55.425Z,4.20
2023-04-23T10:50:27.996Z,4.40
2023-04-23T10:52:57.624Z,4.10
2023-04-23T10:55:27.450Z,4.40
2023-04-23T10:58:05.891Z,4.20
2023-04-23T11:00:45.530Z,4.50
2023-04-23T11:03:30.845Z,4.50
2023-04-23T11:06:04.851Z,5.40
2023-04-23T11:08:38.026Z,5.60
2023-04-23T11:11:09.197Z,4.80
2023-04-23T11:13:37.538Z,4.80
2023-04-23T11:16:21.825Z,3.70
2023-04-23T11:19:03.972Z,5.20
2023-04-23T11:22:00.987Z,7.10
2023-04-23T11:24:42.895Z,4.70
2023-04-23T11:27:18.298Z,5.10
2023-04-23T11:29:46.608Z,3.70
2023-04-23T11:32:16.379Z,3.70
2023-04-23T11:34:45.668Z,4.20
2023-04-23T11:37:15.489Z,4.20
2023-04-23T11:39:44.919Z,3.40
2023-04-23T11:42:16.267Z,3.80
2023-04-23T11:44:45.185Z,4.60
2023-04-23T11:47:14.384Z,3.30
2023-04-23T11:49:43.636Z,3.70
2023-04-23T11:52:12.765Z,3.70
2023-04-23T11:54:41.321Z,4.20
2023-04-23T11:57:10.278Z,4.40
2023-04-23T11:59:38.403Z,4.60
2023-04-23T12:02:06.506Z,5.20
2023-04-23T12:04:34.611Z,4.50
2023-04-23T12:07:10.180Z,4.40
2023-04-23T12:09:47.388Z,5.00
2023-04-23T12:12:15.252Z,4.40
2023-04-23T12:14:43.124Z,4.30
2023-04-23T12:17:11.436Z,3.60
2023-04-23T12:19:40.561Z,3.60
2023-04-23T12:22:09.079Z,3.50
2023-04-23T12:24:52.359Z,4.20
2023-04-23T12:27:22.339Z,4.60
2023-04-23T12:30:02.982Z,6.10
2023-04-23T12:32:34.338Z,4.10
2023-04-23T12:35:02.307Z,5.60
2023-04-23T12:37:31.155Z,4.90
2023-04-23T12:39:59.750Z,4.20
2023-04-23T12:42:27.833Z,7.50
2023-04-23T12:44:56.342Z,5.10
2023-04-23T12:47:24.402Z,4.20
2023-04-23T12:49:56.882Z,4.50
2023-04-23T12:52:25.025Z,4.20
2023-04-23T12:54:56.530Z,4.10
2023-04-23T12:57:24.694Z,4.10
2023-04-23T12:59:54.955Z,4.50
2023-04-23T13:02:24.271Z,4.50
2023-04-23T13:04:54.566Z,6.10
2023-04-23T13:07:23.281Z,4.70
2023-04-23T13:09:51.695Z,4.60
2023-04-23T13:12:19.774Z,5.00
2023-04-23T13:14:47.729Z,4.30
2023-04-23T13:17:15.643Z,5.10
2023-04-23T13:19:44.926Z,5.70
2023-04-23T13:22:12.929Z,4.30
2023-04-23T13:24:41.141Z,4.00
2023-04-23T13:27:09.231Z,5.40
2023-04-23T13:29:37.551Z,3.80
2023-04-23T13:32:06.052Z,5.00
2023-04-23T13:34:34.566Z,4.20
2023-04-23T13:37:05.654Z,4.40
2023-04-23T13:39:33.874Z,4.10
2023-04-23T13:42:09.549Z,3.90
2023-04-23T13:44:38.371Z,4.60
2023-04-23T13:47:06.420Z,4.00
2023-04-23T13:49:34.365Z,4.00
2023-04-23T13:52:06.751Z,5.90
2023-04-23T13:57:07.395Z,6.30
2023-04-23T13:59:35.715Z,5.60
2023-04-23T14:02:03.656Z,5.00
2023-04-23T14:04:32.315Z,5.00
2023-04-23T14:07:00.317Z,4.00
2023-04-23T14:09:29.832Z,5.20
2023-04-23T14:11:58.001Z,4.10
2023-04-23T14:14:25.807Z,4.50
2023-04-23T14:16:53.699Z,4.40
2023-04-23T14:19:21.720Z,4.10
2023-04-23T14:21:50.070Z,4.10
2023-04-23T14:24:23.694Z,3.90
2023-04-23T14:26:51.593Z,5.60
2023-04-23T14:29:42.163Z,4.80
2023-04-23T14:32:10.419Z,4.10
2023-04-23T14:34:38.952Z,4.50
2023-04-23T14:37:05.844Z,4.20
2023-04-23T14:39:33.789Z,3.80
2023-04-23T14:42:01.365Z,4.40
2023-04-23T14:44:28.094Z,5.00
2023-04-23T14:46:54.900Z,5.00
2023-04-23T14:49:21.842Z,4.10
2023-04-23T14:51:50.906Z,4.20
2023-04-23T14:54:17.685Z,4.40
2023-04-23T14:56:44.314Z,4.60
2023-04-23T14:59:11.149Z,4.80
2023-04-23T15:01:37.905Z,5.00
2023-04-23T15:04:05.256Z,4.20
2023-04-23T15:06:31.914Z,4.40
2023-04-23T15:08:58.740Z,4.50
2023-04-23T15:11:25.621Z,4.30
2023-04-23T15:14:03.867Z,4.40
2023-04-23T15:19:03.800Z,4.50
2023-04-23T15:21:30.454Z,4.30
2023-04-23T15:23:57.184Z,4.90
2023-04-23T15:26:23.897Z,4.80
2023-04-23T15:28:50.930Z,3.70
2023-04-23T15:31:17.632Z,4.00
2023-04-23T15:33:44.825Z,4.10
2023-04-23T15:36:11.675Z,4.50
2023-04-23T15:38:38.318Z,5.50
2023-04-23T15:41:05.499Z,4.00
2023-04-23T15:43:32.188Z,5.10
2023-04-23T15:46:00.790Z,4.40
2023-04-23T15:48:27.907Z,4.90
2023-04-23T15:50:54.662Z,4.40
2023-04-23T15:53:22.975Z,4.90
2023-04-23T15:55:52.452Z,5.40
2023-04-23T15:58:19.528Z,4.60
2023-04-23T16:03:32.924Z,4.60
2023-04-23T16:05:59.980Z,5.60
2023-04-23T16:08:26.715Z,7.40
2023-04-23T16:10:53.404Z,6.00
2023-04-23T16:13:20.126Z,5.50
2023-04-23T16:15:47.103Z,5.80
2023-04-23T16:18:13.912Z,5.50
2023-04-23T16:20:41.392Z,5.10
2023-04-23T16:23:08.142Z,4.70
2023-04-23T16:25:34.835Z,5.20
2023-04-23T16:28:01.565Z,3.90
2023-04-23T16:30:28.356Z,4.90
2023-04-23T16:32:55.015Z,5.10
2023-04-23T16:35:22.082Z,7.80
2023-04-23T16:37:48.784Z,5.00
2023-04-23T16:40:15.997Z,4.90
2023-04-23T16:42:43.697Z,4.70
2023-04-23T16:45:11.278Z,5.40
2023-04-23T16:47:37.922Z,5.40
2023-04-23T16:50:04.942Z,6.60
2023-04-23T16:52:31.684Z,8.40
2023-04-23T16:54:58.336Z,5.10
2023-04-23T16:57:25.870Z,7.40
2023-04-23T16:59:52.825Z,4.80
2023-04-23T17:02:21.147Z,5.40
2023-04-23T17:04:48.347Z,5.40
2023-04-23T17:07:15.343Z,6.00
2023-04-23T17:09:42.009Z,5.40
2023-04-23T17:12:08.669Z,7.20
2023-04-23T17:14:35.538Z,6.10
2023-04-23T17:17:02.197Z,4.50
2023-04-23T17:19:28.888Z,7.30
2023-04-23T17:21:55.628Z,4.60
2023-04-23T17:24:22.289Z,4.80
2023-04-23T17:26:49.235Z,5.70
2023-04-23T17:29:15.999Z,5.10
2023-04-23T17:31:42.621Z,6.00
2023-04-23T17:34:09.298Z,6.70
2023-04-23T17:36:35.998Z,4.60
2023-04-23T17:39:02.956Z,5.40
2023-04-23T17:41:29.698Z,7.20
2023-04-23T17:43:56.370Z,7.40
2023-04-23T17:46:23.184Z,6.90
2023-04-23T17:48:50.122Z,11.60
2023-04-23T17:51:16.779Z,7.00
2023-04-23T17:53:48.172Z,7.60
2023-04-23T17:56:15.702Z,7.60
2023-04-23T17:58:42.424Z,8.10
2023-04-23T18:01:09.798Z,8.80
2023-04-23T18:03:36.991Z,7.80
2023-04-23T18:06:04.267Z,6.90
2023-04-23T18:08:31.249Z,6.70
2023-04-23T18:10:58.335Z,6.40
2023-04-23T18:13:25.031Z,6.90
2023-04-23T18:15:51.898Z,8.50
2023-04-23T18:18:18.870Z,6.10
2023-04-23T18:20:46.387Z,6.30
2023-04-23T18:23:14.343Z,5.40
2023-04-23T18:25:41.883Z,6.00
2023-04-23T18:28:08.516Z,5.50
2023-04-23T18:30:36.912Z,6.40
2023-04-23T18:33:36.339Z,7.40
2023-04-23T18:36:05.785Z,6.90
2023-04-23T18:38:38.496Z,6.50
2023-04-23T18:41:05.315Z,6.30
2023-04-23T18:43:32.591Z,5.60
2023-04-23T18:45:59.318Z,5.90
2023-04-23T18:48:34.825Z,5.80
2023-04-23T18:51:25.237Z,8.30
2023-04-23T18:53:52.051Z,6.60
2023-04-23T18:56:19.101Z,6.70
2023-04-23T18:58:45.782Z,7.50
2023-04-23T19:01:12.473Z,7.20
2023-04-23T19:03:39.470Z,6.00
2023-04-23T19:06:07.920Z,7.10
2023-04-23T19:08:37.930Z,6.20
2023-04-23T19:11:04.639Z,5.80
2023-04-23T19:13:31.332Z,6.60
2023-04-23T19:15:58.025Z,7.20
2023-04-23T19:18:24.701Z,5.80
2023-04-23T19:20:52.500Z,5.60
2023-04-23T19:23:19.777Z,6.60
2023-04-23T19:25:46.433Z,6.00
2023-04-23T19:28:13.226Z,6.90
2023-04-23T19:30:40.073Z,7.60
2023-04-23T19:33:06.837Z,8.50
2023-04-23T19:35:33.713Z,7.10
2023-04-23T19:38:00.372Z,6.40
2023-04-23T19:40:27.043Z,6.80
2023-04-23T19:42:53.644Z,6.50
2023-04-23T19:45:20.547Z,7.10
2023-04-23T19:47:47.997Z,8.30
2023-04-23T19:50:15.278Z,7.90
2023-04-23T19:52:41.978Z,8.00
2023-04-23T19:55:08.965Z,8.30
2023-04-23T19:57:35.886Z,7.50
2023-04-23T20:00:05.745Z,9.10
2023-04-23T20:02:33.551Z,8.30
2023-04-23T20:05:00.304Z,8.40
2023-04-23T20:07:26.936Z,10.60
2023-04-23T20:09:54.064Z,9.20
2023-04-23T20:12:20.929Z,10.50
2023-04-23T20:14:47.715Z,9.00
2023-04-23T20:17:14.429Z,9.40
2023-04-23T20:19:41.242Z,10.10
2023-04-23T20:22:08.281Z,12.20
2023-04-23T20:24:35.720Z,12.20
2023-04-23T20:27:02.540Z,12.60
2023-04-23T20:29:30.592Z,10.00
2023-04-23T20:31:57.404Z,11.60
2023-04-23T20:34:24.060Z,10.70
2023-04-23T20:36:51.324Z,12.30
2023-04-23T20:39:22.317Z,12.50
2023-04-23T20:41:50.596Z,12.80
2023-04-23T20:44:18.059Z,14.20
2023-04-23T20:46:45.377Z,13.40
2023-04-23T20:49:12.295Z,12.00
2023-04-23T20:51:38.949Z,12.90
2023-04-23T20:54:05.691Z,12.90
2023-04-23T20:56:32.325Z,12.00
2023-04-23T20:58:59.542Z,12.30
2023-04-23T21:01:26.543Z,11.80
2023-04-23T21:03:53.771Z,13.30
2023-04-23T21:06:21.052Z,14.80
2023-04-23T21:08:47.947Z,13.00
2023-04-23T21:11:18.784Z,13.10
2023-04-23T21:13:46.198Z,12.90
2023-04-23T21:16:13.008Z,11.00
2023-04-23T21:18:40.083Z,13.40
2023-04-23T21:21:07.500Z,13.60
2023-04-23T21:23:34.273Z,11.90
2023-04-23T21:26:00.916Z,14.20
2023-04-23T21:28:27.504Z,12.50
2023-04-23T21:30:55.607Z,13.70
2023-04-23T21:33:24.067Z,12.90
2023-04-23T21:35:51.970Z,12.90
2023-04-23T21:38:19.298Z,11.50
2023-04-23T21:40:46.895Z,12.60
2023-04-23T21:43:13.865Z,11.90
2023-04-23T21:45:40.515Z,12.30
2023-04-23T21:48:07.198Z,12.40
2023-04-23T21:50:33.961Z,12.80
2023-04-23T21:53:04.073Z,14.50
2023-04-23T21:55:31.572Z,11.90
2023-04-23T21:58:09.897Z,13.50
2023-04-23T22:00:44.593Z,11.20
2023-04-23T22:03:12.323Z,10.50
2023-04-23T22:05:42.329Z,10.60
2023-04-23T22:08:09.739Z,11.00
2023-04-23T22:10:42.823Z,10.20
2023-04-23T22:13:10.085Z,11.60
2023-04-23T22:15:36.920Z,11.10
2023-04-23T22:18:03.776Z,9.80
2023-04-23T22:20:30.673Z,10.40
2023-04-23T22:22:57.382Z,10.40
2023-04-23T22:25:24.111Z,9.80
2023-04-23T22:27:50.904Z,12.00
2023-04-23T22:30:17.660Z,8.70
2023-04-23T22:32:44.503Z,9.50
2023-04-23T22:35:11.478Z,9.30
2023-04-23T22:37:38.346Z,10.10
2023-04-23T22:40:07.654Z,10.40
2023-04-23T22:42:34.298Z,10.30
2023-04-23T22:45:01.223Z,8.70
2023-04-23T22:47:27.971Z,8.70
2023-04-23T22:49:54.703Z,8.90
2023-04-23T22:52:21.819Z,10.00
2023-04-23T22:54:48.657Z,8.60
2023-04-23T22:57:15.490Z,8.50
2023-04-23T22:59:42.375Z,10.60
2023-04-23T23:02:09.461Z,9.80
2023-04-23T23:04:38.570Z,9.50
2023-04-23T23:07:05.954Z,10.00
2023-04-23T23:09:32.656Z,9.10
2023-04-23T23:12:02.453Z,8.70
2023-04-23T23:14:29.516Z,10.70
2023-04-23T23:16:57.205Z,9.60
2023-04-23T23:19:24.419Z,10.50
2023-04-23T23:21:51.583Z,10.10
2023-04-23T23:24:19.144Z,11.10
2023-04-23T23:26:46.638Z,11.10
2023-04-23T23:29:13.354Z,10.20
2023-04-23T23:31:40.093Z,9.80
2023-04-23T23:34:06.866Z,9.80
2023-04-23T23:36:34.129Z,9.50
2023-04-23T23:39:00.952Z,9.60
2023-04-23T23:41:27.607Z,10.50
2023-04-23T23:43:54.764Z,9.70
2023-04-23T23:46:21.468Z,9.90
2023-04-23T23:48:48.170Z,9.20
2023-04-23T23:51:14.844Z,11.20
2023-04-23T23:53:41.514Z,10.00
2023-04-23T23:56:08.144Z,10.70
2023-04-23T23:58:34.884Z,10.80
